Time;durP1;ratioP1;P1;durP2;ratioP2;P2;SDS_P1;SDS_P2;PMS_P1;PMS_P2;Temp;Humidity;BMP_temperature;BMP_pressure;BME280_temperature;BME280_humidity;BME280_pressure;Samples;Min_cycle;Max_cycle;Signal;HPM_P1;HPM_P2
2022/03/29 00:00:17;;;;;;;12.43;8.00;;;;;;;;;;4957518;28;100064;-73
2022/03/29 00:02:44;;;;;;;13.18;7.22;;;;;;;;;;4972440;28;100417;-72
2022/03/29 00:05:10;;;;;;;15.10;8.32;;;;;;;;;;4956683;28;100559;-72
2022/03/29 00:07:37;;;;;;;14.18;8.45;;;;;;;;;;4956842;28;100184;-72
2022/03/29 00:10:06;;;;;;;14.35;7.53;;;;;;;;;;4974441;28;100020;-72
2022/03/29 00:12:34;;;;;;;15.35;7.85;;;;;;;;;;4924327;28;103539;-72
2022/03/29 00:15:05;;;;;;;11.20;7.05;;;;;;;;;;4973936;28;101105;-72
2022/03/29 00:17:32;;;;;;;15.30;7.93;;;;;;;;;;4925026;28;99990;-72
2022/03/29 00:19:59;;;;;;;14.48;8.20;;;;;;;;;;4974113;28;100141;-73
2022/03/29 00:22:26;;;;;;;13.82;8.20;;;;;;;;;;4972507;28;101575;-72
2022/03/29 00:24:53;;;;;;;12.85;7.90;;;;;;;;;;4974106;28;100085;-73
2022/03/29 00:27:19;;;;;;;15.55;8.38;;;;;;;;;;4956460;28;100414;-73
2022/03/29 00:29:47;;;;;;;16.25;8.43;;;;;;;;;;4957196;28;101614;-73
2022/03/29 00:32:14;;;;;;;15.45;8.50;;;;;;;;;;4955643;28;100904;-73
2022/03/29 00:34:42;;;;;;;14.20;8.32;;;;;;;;;;4972986;28;100696;-72
2022/03/29 00:37:09;;;;;;;16.40;9.00;;;;;;;;;;4956612;28;100890;-73
2022/03/29 00:39:36;;;;;;;15.43;8.43;;;;;;;;;;4954572;28;100666;-72
2022/03/29 00:42:03;;;;;;;15.57;8.75;;;;;;;;;;4954959;28;100436;-72
2022/03/29 00:44:31;;;;;;;19.80;8.55;;;;;;;;;;4955141;28;100633;-73
2022/03/29 00:46:58;;;;;;;15.85;8.52;;;;;;;;;;4938437;28;100117;-72
2022/03/29 00:49:27;;;;;;;16.17;8.13;;;;;;;;;;4973658;28;100046;-73
2022/03/29 00:51:57;;;;;;;12.35;7.53;;;;;;;;;;4972112;28;101690;-73
2022/03/29 00:54:25;;;;;;;16.98;8.68;;;;;;;;;;4939902;28;101455;-72
2022/03/29 00:56:52;;;;;;;14.15;7.35;;;;;;;;;;4937677;28;100716;-72
2022/03/29 00:59:19;;;;;;;15.43;7.93;;;;;;;;;;4954896;28;100092;-73
2022/03/29 01:01:45;;;;;;;14.50;8.38;;;;;;;;;;4938019;28;100593;-73
2022/03/29 01:04:13;;;;;;;16.38;9.07;;;;;;;;;;4971604;28;100780;-73
2022/03/29 01:06:39;;;;;;;13.65;9.20;;;;;;;;;;4939028;28;100128;-72
2022/03/29 01:09:06;;;;;;;14.90;9.23;;;;;;;;;;4955215;28;100070;-73
2022/03/29 01:11:33;;;;;;;15.32;9.25;;;;;;;;;;4954818;28;102428;-72
2022/03/29 01:14:01;;;;;;;14.25;8.50;;;;;;;;;;4938614;28;100627;-72
2022/03/29 01:19:13;;;;;;;18.42;8.40;;;;;;;;;;4972415;28;100086;-72
2022/03/29 01:21:40;;;;;;;16.80;8.35;;;;;;;;;;4937847;28;100412;-72
2022/03/29 01:24:08;;;;;;;15.40;8.15;;;;;;;;;;4954346;28;100559;-72
2022/03/29 01:26:35;;;;;;;13.77;8.75;;;;;;;;;;4939022;28;100052;-72
2022/03/29 01:29:02;;;;;;;21.67;8.40;;;;;;;;;;4972500;28;100077;-73
2022/03/29 01:31:29;;;;;;;17.17;8.38;;;;;;;;;;4954096;28;100268;-73
2022/03/29 01:33:56;;;;;;;15.07;8.82;;;;;;;;;;4953975;28;102279;-73
2022/03/29 01:36:23;;;;;;;15.20;8.20;;;;;;;;;;4953576;28;100081;-73
2022/03/29 01:38:50;;;;;;;15.82;8.80;;;;;;;;;;4972895;28;100029;-73
2022/03/29 01:41:17;;;;;;;16.75;8.82;;;;;;;;;;4972439;28;100434;-72
2022/03/29 01:43:43;;;;;;;16.80;9.07;;;;;;;;;;4955227;28;103086;-72
2022/03/29 01:46:12;;;;;;;15.13;8.77;;;;;;;;;;4955200;28;99987;-72
2022/03/29 01:48:39;;;;;;;14.48;8.75;;;;;;;;;;4972967;28;100077;-72
2022/03/29 01:51:06;;;;;;;14.05;8.07;;;;;;;;;;4972662;28;100264;-72
2022/03/29 01:53:33;;;;;;;13.32;8.43;;;;;;;;;;4954187;28;101146;-72
2022/03/29 01:56:00;;;;;;;17.42;8.43;;;;;;;;;;4971083;28;100212;-72
2022/03/29 01:58:29;;;;;;;17.38;8.93;;;;;;;;;;4955401;28;99992;-72
2022/03/29 02:00:56;;;;;;;16.45;9.27;;;;;;;;;;4939359;28;100228;-72
2022/03/29 02:03:23;;;;;;;15.98;9.18;;;;;;;;;;4954481;28;100568;-72
2022/03/29 02:05:50;;;;;;;15.68;9.45;;;;;;;;;;4972540;28;100032;-72
2022/03/29 02:08:17;;;;;;;15.82;9.45;;;;;;;;;;4971585;28;100064;-72
2022/03/29 02:10:43;;;;;;;14.95;8.27;;;;;;;;;;4953961;28;100561;-72
2022/03/29 02:13:10;;;;;;;14.75;9.20;;;;;;;;;;4953972;28;100821;-73
2022/03/29 02:15:40;;;;;;;14.13;8.45;;;;;;;;;;4939020;28;100021;-72
2022/03/29 02:18:07;;;;;;;17.33;9.18;;;;;;;;;;4954703;28;100000;-72
2022/03/29 02:20:34;;;;;;;16.67;9.65;;;;;;;;;;4954725;28;100267;-72
2022/03/29 02:23:06;;;;;;;16.75;9.18;;;;;;;;;;4955027;28;100511;-72
2022/03/29 02:25:33;;;;;;;15.15;9.02;;;;;;;;;;4938279;28;100123;-72
2022/03/29 02:28:00;;;;;;;15.45;8.60;;;;;;;;;;4923070;28;100281;-72
2022/03/29 02:30:27;;;;;;;15.07;8.73;;;;;;;;;;4954607;28;100627;-72
2022/03/29 02:32:54;;;;;;;16.50;9.77;;;;;;;;;;4954707;28;101169;-72
2022/03/29 02:35:21;;;;;;;13.45;8.45;;;;;;;;;;4971662;28;100126;-73
2022/03/29 02:37:48;;;;;;;13.05;9.27;;;;;;;;;;4972311;28;99836;-72
2022/03/29 02:40:14;;;;;;;15.35;8.52;;;;;;;;;;4954677;28;100303;-72
2022/03/29 02:42:46;;;;;;;21.35;9.40;;;;;;;;;;4971779;28;100836;-73
2022/03/29 02:45:18;;;;;;;14.85;8.90;;;;;;;;;;4955189;28;100184;-72
2022/03/29 02:47:46;;;;;;;15.68;9.10;;;;;;;;;;4972677;28;100008;-72
2022/03/29 02:50:13;;;;;;;15.32;9.48;;;;;;;;;;4938321;28;100364;-72
2022/03/29 02:52:47;;;;;;;15.50;9.55;;;;;;;;;;4954822;28;100590;-72
2022/03/29 02:55:14;;;;;;;;;;;;;;;;;;4939361;28;99841;-72
2022/03/29 02:57:43;;;;;;;16.55;8.98;;;;;;;;;;4954665;28;100298;-72
2022/03/29 03:00:12;;;;;;;15.45;8.93;;;;;;;;;;4971310;28;100267;-72
2022/03/29 03:02:38;;;;;;;15.18;10.00;;;;;;;;;;4954364;28;100586;-72
2022/03/29 03:05:06;;;;;;;17.23;9.20;;;;;;;;;;4954590;28;100053;-73
2022/03/29 03:07:33;;;;;;;15.20;8.88;;;;;;;;;;4972232;28;100133;-72
2022/03/29 03:10:00;;;;;;;18.42;9.70;;;;;;;;;;4954171;28;100320;-73
2022/03/29 03:12:27;;;;;;;21.63;9.85;;;;;;;;;;4970107;28;100914;-73
2022/03/29 03:14:53;;;;;;;19.00;9.98;;;;;;;;;;4937759;28;100249;-72
2022/03/29 03:17:20;;;;;;;16.73;9.38;;;;;;;;;;4971910;28;99864;-72
2022/03/29 03:19:47;;;;;;;15.77;10.27;;;;;;;;;;4971268;28;100474;-74
2022/03/29 03:22:14;;;;;;;18.17;10.40;;;;;;;;;;4937945;28;100635;-72
2022/03/29 03:24:41;;;;;;;19.38;11.07;;;;;;;;;;4937395;28;99940;-72
2022/03/29 03:27:08;;;;;;;14.40;9.95;;;;;;;;;;4972020;28;99934;-72
2022/03/29 03:29:35;;;;;;;19.58;10.02;;;;;;;;;;4953658;28;100334;-72
2022/03/29 03:32:02;;;;;;;16.13;10.00;;;;;;;;;;4953795;28;101782;-72
2022/03/29 03:34:29;;;;;;;17.88;10.48;;;;;;;;;;4954214;28;100233;-72
2022/03/29 03:36:57;;;;;;;16.80;10.13;;;;;;;;;;4973302;28;100597;-72
2022/03/29 03:39:23;;;;;;;18.05;9.75;;;;;;;;;;4974244;28;100821;-73
2022/03/29 03:41:50;;;;;;;14.98;10.23;;;;;;;;;;4957514;28;100626;-72
2022/03/29 03:44:17;;;;;;;15.32;9.70;;;;;;;;;;4974001;28;100231;-73
2022/03/29 03:46:44;;;;;;;16.70;9.98;;;;;;;;;;4974834;28;100018;-73
2022/03/29 03:49:11;;;;;;;15.20;9.45;;;;;;;;;;4973996;28;100272;-72
2022/03/29 03:51:38;;;;;;;14.82;9.88;;;;;;;;;;4957274;28;100592;-72
2022/03/29 03:54:05;;;;;;;17.63;8.70;;;;;;;;;;4974649;28;99856;-73
2022/03/29 03:56:31;;;;;;;14.23;9.35;;;;;;;;;;4956974;28;101197;-73
2022/03/29 03:58:58;;;;;;;15.68;9.27;;;;;;;;;;4957043;28;100437;-73
2022/03/29 04:01:25;;;;;;;14.45;9.07;;;;;;;;;;4956294;28;101032;-73
2022/03/29 04:03:52;;;;;;;16.23;9.63;;;;;;;;;;4973265;28;100094;-73
2022/03/29 04:06:22;;;;;;;17.98;10.55;;;;;;;;;;4941656;28;100129;-73
2022/03/29 04:08:49;;;;;;;17.13;10.55;;;;;;;;;;4973722;28;100386;-73
2022/03/29 04:11:16;;;;;;;14.98;10.25;;;;;;;;;;4956597;28;100579;-73
2022/03/29 04:13:43;;;;;;;17.88;9.73;;;;;;;;;;4956436;28;100040;-73
2022/03/29 04:16:10;;;;;;;13.93;9.48;;;;;;;;;;4974298;28;99975;-72
2022/03/29 04:18:37;;;;;;;15.20;9.73;;;;;;;;;;4973809;28;100391;-73
2022/03/29 04:21:05;;;;;;;16.75;9.50;;;;;;;;;;4973576;28;100633;-73
2022/03/29 04:23:31;;;;;;;17.33;9.50;;;;;;;;;;4974315;28;99962;-73
2022/03/29 04:25:58;;;;;;;15.55;9.82;;;;;;;;;;4973855;28;100132;-73
2022/03/29 04:28:25;;;;;;;16.77;8.82;;;;;;;;;;4956220;28;100290;-73
2022/03/29 04:30:55;;;;;;;14.93;9.13;;;;;;;;;;4956695;28;100637;-73
2022/03/29 04:33:22;;;;;;;16.90;9.23;;;;;;;;;;4956112;28;100050;-73
2022/03/29 04:35:49;;;;;;;19.90;10.55;;;;;;;;;;4974144;28;100076;-73
2022/03/29 04:38:16;;;;;;;17.35;9.93;;;;;;;;;;4955558;28;100439;-73
2022/03/29 04:40:42;;;;;;;17.40;9.35;;;;;;;;;;4955695;28;100712;-73
2022/03/29 04:43:09;;;;;;;18.17;9.75;;;;;;;;;;4956391;28;100251;-72
2022/03/29 04:45:36;;;;;;;16.58;9.90;;;;;;;;;;4973699;28;100121;-73
2022/03/29 04:48:04;;;;;;;15.18;9.73;;;;;;;;;;4968315;28;101109;-73
2022/03/29 04:50:31;;;;;;;18.08;9.30;;;;;;;;;;4973304;28;100633;-74
2022/03/29 04:52:58;;;;;;;16.58;10.48;;;;;;;;;;4956162;28;100257;-73
2022/03/29 04:55:25;;;;;;;15.38;9.65;;;;;;;;;;4956473;28;100076;-73
2022/03/29 04:57:52;;;;;;;18.73;10.55;;;;;;;;;;4972779;28;100351;-73
2022/03/29 05:00:20;;;;;;;18.63;11.10;;;;;;;;;;4972872;28;100616;-73
2022/03/29 05:02:48;;;;;;;15.20;10.27;;;;;;;;;;4955273;28;100003;-73
2022/03/29 05:05:15;;;;;;;19.70;10.55;;;;;;;;;;4938159;28;100157;-71
2022/03/29 05:07:42;;;;;;;17.77;10.90;;;;;;;;;;4953844;28;100771;-71
2022/03/29 05:10:09;;;;;;;18.60;11.23;;;;;;;;;;4939343;28;100602;-71
2022/03/29 05:12:44;;;;;;;18.30;11.43;;;;;;;;;;4939724;28;100915;-72
2022/03/29 05:15:12;;;;;;;21.52;11.20;;;;;;;;;;4955526;28;100063;-72
2022/03/29 05:17:39;;;;;;;19.33;11.32;;;;;;;;;;4955698;28;100247;-71
2022/03/29 05:20:07;;;;;;;24.88;11.68;;;;;;;;;;4938697;28;100809;-72
2022/03/29 05:23:02;;;;;;;21.13;12.48;;;;;;;;;;4956035;28;100116;-74
2022/03/29 05:25:29;;;;;;;23.05;12.18;;;;;;;;;;4970989;28;100032;-71
2022/03/29 05:27:57;;;;;;;21.55;11.45;;;;;;;;;;4972295;28;100284;-71
2022/03/29 05:30:24;;;;;;;20.63;12.45;;;;;;;;;;4955877;28;100618;-73
2022/03/29 05:32:57;;;;;;;21.98;12.75;;;;;;;;;;4972903;28;100246;-71
2022/03/29 05:35:29;;;;;;;20.20;11.75;;;;;;;;;;4972753;28;100078;-71
2022/03/29 05:37:57;;;;;;;18.75;11.02;;;;;;;;;;4940354;28;100873;-72
2022/03/29 05:40:42;;;;;;;20.73;10.27;;;;;;;;;;4954200;28;100493;-73
2022/03/29 05:43:13;;;;;;;17.58;10.60;;;;;;;;;;4922948;28;100215;-72
2022/03/29 05:45:40;;;;;;;17.55;9.77;;;;;;;;;;4924140;28;100002;-72
2022/03/29 05:50:54;;;;;;;21.13;10.93;;;;;;;;;;4958696;28;100582;-72
2022/03/29 05:53:23;;;;;;;17.40;9.85;;;;;;;;;;4972048;28;100103;-72
2022/03/29 05:55:50;;;;;;;18.17;10.43;;;;;;;;;;4955685;28;100069;-72
2022/03/29 05:58:17;;;;;;;21.42;10.55;;;;;;;;;;4972416;28;100935;-72
2022/03/29 06:00:44;;;;;;;15.93;9.85;;;;;;;;;;4970687;28;101756;-72
2022/03/29 06:03:11;;;;;;;17.08;9.80;;;;;;;;;;4954349;28;100066;-72
2022/03/29 06:05:42;;;;;;;16.58;10.02;;;;;;;;;;4970345;28;100890;-72
2022/03/29 06:08:16;;;;;;;15.30;9.45;;;;;;;;;;4970867;28;101575;-71
2022/03/29 06:10:43;;;;;;;18.42;9.68;;;;;;;;;;4971566;28;100589;-71
2022/03/29 06:13:11;;;;;;;17.35;9.93;;;;;;;;;;4971836;28;100125;-72
2022/03/29 06:15:38;;;;;;;15.48;9.57;;;;;;;;;;4954278;28;100086;-71
2022/03/29 06:18:05;;;;;;;17.25;10.38;;;;;;;;;;4951782;28;100471;-71
2022/03/29 06:20:32;;;;;;;16.85;9.82;;;;;;;;;;4970852;28;101953;-71
2022/03/29 06:22:59;;;;;;;15.10;9.35;;;;;;;;;;4971314;28;100191;-71
2022/03/29 06:25:26;;;;;;;14.95;9.80;;;;;;;;;;4954247;28;100110;-73
2022/03/29 06:27:54;;;;;;;14.77;9.52;;;;;;;;;;4937543;28;100331;-72
2022/03/29 06:30:21;;;;;;;24.15;10.55;;;;;;;;;;4936098;28;100640;-72
2022/03/29 06:32:52;;;;;;;19.67;10.57;;;;;;;;;;4937904;28;100279;-72
2022/03/29 06:35:26;;;;;;;19.02;11.32;;;;;;;;;;4954168;28;100097;-72
2022/03/29 06:37:55;;;;;;;17.38;10.38;;;;;;;;;;4936794;28;103187;-75
2022/03/29 06:40:22;;;;;;;18.95;10.23;;;;;;;;;;4951737;28;100551;-72
2022/03/29 06:42:50;;;;;;;23.45;11.60;;;;;;;;;;4953014;28;100193;-72
2022/03/29 06:45:17;;;;;;;17.85;10.48;;;;;;;;;;4954263;28;100476;-72
2022/03/29 06:47:44;;;;;;;17.08;10.77;;;;;;;;;;4971146;28;100238;-73
2022/03/29 06:50:11;;;;;;;16.13;10.50;;;;;;;;;;4970760;28;100566;-73
2022/03/29 06:52:38;;;;;;;21.40;10.55;;;;;;;;;;4953905;28;100174;-72
2022/03/29 06:55:06;;;;;;;16.48;10.07;;;;;;;;;;4969971;28;100168;-72
2022/03/29 06:57:33;;;;;;;16.38;10.27;;;;;;;;;;4921539;28;101270;-72
2022/03/29 07:00:00;;;;;;;20.98;11.52;;;;;;;;;;4921586;28;100623;-72
2022/03/29 07:02:28;;;;;;;20.02;10.55;;;;;;;;;;4953601;28;100216;-72
2022/03/29 07:04:55;;;;;;;16.05;10.43;;;;;;;;;;4953868;28;100143;-72
2022/03/29 07:07:22;;;;;;;18.17;11.27;;;;;;;;;;4936911;28;100247;-72
2022/03/29 07:12:52;;;;;;;22.70;11.45;;;;;;;;;;4974602;28;100078;-72
2022/03/29 07:15:19;;;;;;;21.63;10.63;;;;;;;;;;4956739;28;100162;-72
2022/03/29 07:17:46;;;;;;;14.52;10.45;;;;;;;;;;4973811;28;100207;-74
2022/03/29 07:20:14;;;;;;;20.23;10.40;;;;;;;;;;4974002;28;100620;-73
2022/03/29 07:22:42;;;;;;;15.90;9.73;;;;;;;;;;4974310;28;100355;-73
2022/03/29 07:25:09;;;;;;;17.27;10.95;;;;;;;;;;4941029;28;100190;-72
2022/03/29 07:27:36;;;;;;;18.02;10.82;;;;;;;;;;4956364;28;101464;-73
2022/03/29 07:30:04;;;;;;;16.83;10.48;;;;;;;;;;4973425;28;101706;-74
2022/03/29 07:32:31;;;;;;;24.60;11.63;;;;;;;;;;4941007;28;100189;-73
2022/03/29 07:34:59;;;;;;;19.33;11.65;;;;;;;;;;4957634;28;100057;-74
2022/03/29 07:37:25;;;;;;;22.48;12.02;;;;;;;;;;4957542;28;100305;-73
2022/03/29 07:39:54;;;;;;;23.20;11.75;;;;;;;;;;4957630;28;100711;-73
2022/03/29 07:42:24;;;;;;;21.63;12.07;;;;;;;;;;4941115;28;100150;-73
2022/03/29 07:44:51;;;;;;;19.45;12.35;;;;;;;;;;4957786;28;101011;-73
2022/03/29 07:47:19;;;;;;;19.52;11.82;;;;;;;;;;4957276;28;100246;-73
2022/03/29 07:49:46;;;;;;;19.08;11.50;;;;;;;;;;4941029;28;102846;-72
2022/03/29 07:52:34;;;;;;;17.73;10.77;;;;;;;;;;4939928;28;100042;-73
2022/03/29 07:55:01;;;;;;;18.88;11.50;;;;;;;;;;4941524;28;100043;-72
2022/03/29 07:57:47;;;;;;;19.00;11.40;;;;;;;;;;4959352;28;100298;-73
2022/03/29 08:00:32;;;;;;;21.60;12.25;;;;;;;;;;4976609;28;101108;-73
2022/03/29 08:03:06;;;;;;;22.50;11.75;;;;;;;;;;4974407;28;100326;-73
2022/03/29 08:05:34;;;;;;;18.63;12.00;;;;;;;;;;4958709;28;100253;-72
2022/03/29 08:08:01;;;;;;;19.50;12.25;;;;;;;;;;4973939;28;100276;-73
2022/03/29 08:10:30;;;;;;;23.33;13.52;;;;;;;;;;4955648;28;100779;-73
2022/03/29 08:13:01;;;;;;;22.80;13.45;;;;;;;;;;4941217;28;100069;-72
2022/03/29 08:15:31;;;;;;;21.42;13.40;;;;;;;;;;4957710;28;100119;-72
2022/03/29 08:18:05;;;;;;;19.67;12.93;;;;;;;;;;4973354;28;100358;-73
2022/03/29 08:20:31;;;;;;;24.58;13.82;;;;;;;;;;4956442;28;101095;-74
2022/03/29 08:23:01;;;;;;;22.70;12.48;;;;;;;;;;4973054;28;100106;-72
2022/03/29 08:25:29;;;;;;;21.17;12.52;;;;;;;;;;4941017;28;100229;-72
2022/03/29 08:27:56;;;;;;;19.80;12.13;;;;;;;;;;4956133;28;100453;-73
2022/03/29 08:30:24;;;;;;;19.95;14.27;;;;;;;;;;4939675;28;102206;-73
2022/03/29 08:32:52;;;;;;;21.25;12.75;;;;;;;;;;4940099;28;100080;-72
2022/03/29 08:35:18;;;;;;;20.10;12.90;;;;;;;;;;4956531;28;100021;-73
2022/03/29 08:37:47;;;;;;;23.30;15.90;;;;;;;;;;4973355;28;100280;-73
2022/03/29 08:40:26;;;;;;;25.42;16.63;;;;;;;;;;4973896;28;100930;-74
2022/03/29 08:42:54;;;;;;;22.38;13.25;;;;;;;;;;4938861;28;100407;-72
2022/03/29 08:45:26;;;;;;;22.02;12.63;;;;;;;;;;4973110;28;100132;-73
2022/03/29 08:47:56;;;;;;;20.05;12.57;;;;;;;;;;4972485;28;100627;-73
2022/03/29 08:50:25;;;;;;;22.77;12.60;;;;;;;;;;4939982;28;100574;-72
2022/03/29 08:52:52;;;;;;;22.02;11.65;;;;;;;;;;4973259;28;100585;-73
2022/03/29 08:55:20;;;;;;;21.92;12.60;;;;;;;;;;4942645;28;100034;-73
2022/03/29 08:57:54;;;;;;;21.50;13.90;;;;;;;;;;4939441;28;100329;-73
2022/03/29 09:00:26;;;;;;;23.27;13.90;;;;;;;;;;4956321;28;100890;-74
2022/03/29 09:02:53;;;;;;;28.73;14.68;;;;;;;;;;4939925;28;100572;-73
2022/03/29 09:05:26;;;;;;;23.20;13.02;;;;;;;;;;4958325;28;101563;-73
2022/03/29 09:08:01;;;;;;;21.88;13.35;;;;;;;;;;4958864;28;100353;-73
2022/03/29 09:10:40;;;;;;;25.60;13.02;;;;;;;;;;4956492;28;100933;-73
2022/03/29 09:13:14;;;;;;;21.27;11.75;;;;;;;;;;4939414;28;100066;-72
2022/03/29 09:15:41;;;;;;;22.13;12.30;;;;;;;;;;4972832;28;99963;-73
2022/03/29 09:18:08;;;;;;;23.75;13.07;;;;;;;;;;4973070;28;100319;-73
2022/03/29 09:20:36;;;;;;;20.20;12.05;;;;;;;;;;4957441;28;101105;-73
2022/03/29 09:23:04;;;;;;;19.02;11.93;;;;;;;;;;4972632;28;100116;-74
2022/03/29 09:25:38;;;;;;;24.10;13.60;;;;;;;;;;4972928;28;99907;-73
2022/03/29 09:28:10;;;;;;;19.75;11.13;;;;;;;;;;4967003;28;100855;-73
2022/03/29 09:30:39;;;;;;;25.23;15.13;;;;;;;;;;4955976;28;100673;-72
2022/03/29 09:33:12;;;;;;;23.90;15.65;;;;;;;;;;4944385;28;100180;-73
2022/03/29 09:36:07;;;;;;;20.55;12.80;;;;;;;;;;4940153;28;99999;-73
2022/03/29 09:38:41;;;;;;;22.00;13.02;;;;;;;;;;4971825;28;100263;-73
2022/03/29 09:41:29;;;;;;;22.38;13.63;;;;;;;;;;4939905;28;100928;-72
2022/03/29 09:44:09;;;;;;;23.50;13.65;;;;;;;;;;4955639;28;100205;-73
2022/03/29 09:46:56;;;;;;;20.52;11.30;;;;;;;;;;4952655;28;100138;-72
2022/03/29 09:49:23;;;;;;;20.25;11.70;;;;;;;;;;4954639;28;100308;-73
2022/03/29 09:52:09;;;;;;;26.48;13.48;;;;;;;;;;4939016;28;100567;-74
2022/03/29 09:54:37;;;;;;;29.77;14.65;;;;;;;;;;4971994;28;100028;-72
2022/03/29 09:57:04;;;;;;;25.80;12.70;;;;;;;;;;4955178;28;100145;-73
2022/03/29 09:59:34;;;;;;;22.85;13.10;;;;;;;;;;4954001;28;100780;-74
2022/03/29 10:02:01;;;;;;;26.67;14.18;;;;;;;;;;4971417;28;100644;-72
2022/03/29 10:04:29;;;;;;;25.52;14.15;;;;;;;;;;4921730;28;102120;-72
2022/03/29 10:06:58;;;;;;;22.98;11.90;;;;;;;;;;4971865;28;100612;-72
2022/03/29 10:09:33;;;;;;;25.10;13.15;;;;;;;;;;4935587;28;101196;-72
2022/03/29 10:12:04;;;;;;;22.38;13.13;;;;;;;;;;4951920;28;101190;-72
2022/03/29 10:14:32;;;;;;;20.85;12.88;;;;;;;;;;4939078;28;100325;-73
2022/03/29 10:16:59;;;;;;;22.23;12.98;;;;;;;;;;4938385;28;100093;-73
2022/03/29 10:19:25;;;;;;;21.33;14.13;;;;;;;;;;4937675;28;100252;-72
2022/03/29 10:21:59;;;;;;;23.70;14.13;;;;;;;;;;4940164;28;101023;-72
2022/03/29 10:24:27;;;;;;;24.85;14.20;;;;;;;;;;4939225;28;101410;-72
2022/03/29 10:26:55;;;;;;;25.42;13.30;;;;;;;;;;4938725;28;100202;-72
2022/03/29 10:29:22;;;;;;;22.77;14.25;;;;;;;;;;4954816;28;100816;-72
2022/03/29 10:31:52;;;;;;;31.65;16.02;;;;;;;;;;4938596;28;100580;-73
2022/03/29 10:34:37;;;;;;;24.52;14.93;;;;;;;;;;4951311;28;100304;-73
2022/03/29 10:37:08;;;;;;;25.23;13.93;;;;;;;;;;4922271;28;100070;-72
2022/03/29 10:39:48;;;;;;;24.90;15.80;;;;;;;;;;4970010;28;100301;-71
2022/03/29 10:42:27;;;;;;;32.97;17.83;;;;;;;;;;4968915;28;100697;-72
2022/03/29 10:45:18;;;;;;;25.52;14.57;;;;;;;;;;4971492;28;100111;-72
2022/03/29 10:48:00;;;;;;;32.42;15.77;;;;;;;;;;4975357;28;100040;-72
2022/03/29 10:50:46;;;;;;;28.35;16.13;;;;;;;;;;4956488;28;100559;-72
2022/03/29 10:53:28;;;;;;;25.67;14.70;;;;;;;;;;4973545;28;101978;-72
2022/03/29 10:56:15;;;;;;;25.85;15.70;;;;;;;;;;4933635;28;103068;-72
2022/03/29 10:59:00;;;;;;;28.17;17.60;;;;;;;;;;4956568;28;100179;-73
2022/03/29 11:01:27;;;;;;;28.63;17.80;;;;;;;;;;4956661;28;101852;-73
2022/03/29 11:04:00;;;;;;;28.15;17.52;;;;;;;;;;4940340;28;100922;-72
2022/03/29 11:06:28;;;;;;;31.42;17.25;;;;;;;;;;4940528;28;100256;-72
2022/03/29 11:09:08;;;;;;;30.60;19.20;;;;;;;;;;4957359;28;100077;-72
2022/03/29 11:11:51;;;;;;;35.15;19.48;;;;;;;;;;4939470;28;103669;-73
2022/03/29 11:14:30;;;;;;;34.20;20.58;;;;;;;;;;4958744;28;100611;-73
2022/03/29 11:17:09;;;;;;;33.70;19.23;;;;;;;;;;4957777;28;100197;-73
2022/03/29 11:19:53;;;;;;;34.13;18.58;;;;;;;;;;4974524;28;100364;-72
2022/03/29 11:22:42;;;;;;;30.65;19.10;;;;;;;;;;4975707;28;100328;-72
2022/03/29 11:25:10;;;;;;;26.40;17.00;;;;;;;;;;4956538;28;100581;-73
2022/03/29 11:27:37;;;;;;;26.63;16.77;;;;;;;;;;4956923;28;100615;-73
2022/03/29 11:30:08;;;;;;;27.67;16.33;;;;;;;;;;4956364;28;100892;-72
2022/03/29 11:32:37;;;;;;;31.08;16.42;;;;;;;;;;4973673;28;100834;-73
2022/03/29 11:35:06;;;;;;;29.90;16.58;;;;;;;;;;4956081;28;101917;-72
2022/03/29 11:37:43;;;;;;;29.52;16.83;;;;;;;;;;4974247;28;100177;-74
2022/03/29 11:40:17;;;;;;;27.95;16.35;;;;;;;;;;4958193;28;100267;-73
2022/03/29 11:42:46;;;;;;;29.55;16.65;;;;;;;;;;4956069;28;100404;-72
2022/03/29 11:45:13;;;;;;;29.23;16.60;;;;;;;;;;4941020;28;100627;-72
2022/03/29 11:47:41;;;;;;;28.45;18.23;;;;;;;;;;4973654;28;100161;-73
2022/03/29 11:50:08;;;;;;;26.67;16.40;;;;;;;;;;4935727;28;100641;-74
2022/03/29 11:52:35;;;;;;;27.48;16.40;;;;;;;;;;4955585;28;100297;-72
2022/03/29 11:55:14;;;;;;;25.52;15.93;;;;;;;;;;4955959;28;100670;-72
2022/03/29 11:57:41;;;;;;;29.00;16.35;;;;;;;;;;4972981;28;100105;-73
2022/03/29 12:00:22;;;;;;;25.45;15.52;;;;;;;;;;4973929;28;100038;-73
2022/03/29 12:02:49;;;;;;;28.70;16.48;;;;;;;;;;4959819;28;100257;-73
2022/03/29 12:05:23;;;;;;;28.70;17.25;;;;;;;;;;4952835;28;100559;-72
2022/03/29 12:08:02;;;;;;;28.63;16.30;;;;;;;;;;4973728;28;100181;-72
2022/03/29 12:10:34;;;;;;;34.50;17.67;;;;;;;;;;4957091;28;100227;-73
2022/03/29 12:13:02;;;;;;;29.67;16.00;;;;;;;;;;4955405;28;100391;-72
2022/03/29 12:15:30;;;;;;;22.70;14.85;;;;;;;;;;4957532;28;104287;-73
2022/03/29 12:20:46;;;;;;;28.50;15.85;;;;;;;;;;4958636;28;100150;-73
2022/03/29 12:23:18;;;;;;;25.35;14.65;;;;;;;;;;4957562;28;100727;-72
2022/03/29 12:25:45;;;;;;;28.65;15.50;;;;;;;;;;4938869;28;102670;-73
2022/03/29 12:28:13;;;;;;;26.45;15.43;;;;;;;;;;4955850;28;100143;-72
2022/03/29 12:30:40;;;;;;;26.13;15.07;;;;;;;;;;4957065;28;100579;-73
2022/03/29 12:33:08;;;;;;;29.75;17.02;;;;;;;;;;4939595;28;100340;-73
2022/03/29 12:35:35;;;;;;;27.65;16.90;;;;;;;;;;4972557;28;100544;-73
2022/03/29 12:38:03;;;;;;;31.83;18.85;;;;;;;;;;4939434;28;100285;-73
2022/03/29 12:40:30;;;;;;;26.75;14.80;;;;;;;;;;4961012;28;100159;-74
2022/03/29 12:43:04;;;;;;;29.10;16.88;;;;;;;;;;4942160;28;102374;-73
2022/03/29 12:45:33;;;;;;;26.77;15.30;;;;;;;;;;4958084;28;100673;-73
2022/03/29 12:48:03;;;;;;;29.48;17.33;;;;;;;;;;4939265;28;100206;-73
2022/03/29 12:50:31;;;;;;;24.98;15.00;;;;;;;;;;4955756;28;100117;-73
2022/03/29 12:53:06;;;;;;;23.40;14.23;;;;;;;;;;4939484;28;100295;-73
2022/03/29 12:55:33;;;;;;;27.95;17.90;;;;;;;;;;4955405;28;100628;-73
2022/03/29 12:58:02;;;;;;;31.92;19.05;;;;;;;;;;4972887;28;100169;-72
2022/03/29 13:00:41;;;;;;;29.02;16.73;;;;;;;;;;4938482;28;100162;-74
2022/03/29 13:03:09;;;;;;;33.00;16.17;;;;;;;;;;4940365;28;100813;-73
2022/03/29 13:06:00;;;;;;;25.88;16.08;;;;;;;;;;4944296;28;100556;-73
2022/03/29 13:08:28;;;;;;;25.13;15.10;;;;;;;;;;4954851;28;100326;-73
2022/03/29 13:10:55;;;;;;;25.15;15.23;;;;;;;;;;4972852;28;100602;-73
2022/03/29 13:13:30;;;;;;;29.08;15.48;;;;;;;;;;4956321;28;100284;-73
2022/03/29 13:16:05;;;;;;;28.05;16.20;;;;;;;;;;4949932;28;101531;-73
2022/03/29 13:18:34;;;;;;;25.65;15.20;;;;;;;;;;4950698;28;100603;-72
2022/03/29 13:21:20;;;;;;;29.30;16.38;;;;;;;;;;4956453;28;100082;-72
2022/03/29 13:24:04;;;;;;;27.40;15.52;;;;;;;;;;4970504;28;101174;-72
2022/03/29 13:26:33;;;;;;;;;;;;;;;;;;4955744;28;100571;-72
2022/03/29 13:29:00;;;;;;;27.15;15.23;;;;;;;;;;4971774;28;100584;-72
2022/03/29 13:31:28;;;;;;;28.15;16.13;;;;;;;;;;4939752;28;100028;-74
2022/03/29 13:33:56;;;;;;;26.63;17.00;;;;;;;;;;4971590;28;101637;-72
2022/03/29 13:36:24;;;;;;;28.85;16.77;;;;;;;;;;4954753;28;100657;-73
2022/03/29 13:38:52;;;;;;;28.45;17.50;;;;;;;;;;4954783;28;100315;-72
2022/03/29 13:41:19;;;;;;;30.55;18.40;;;;;;;;;;4955592;28;100171;-73
2022/03/29 13:43:46;;;;;;;29.27;16.42;;;;;;;;;;4971931;28;100198;-72
2022/03/29 13:46:14;;;;;;;28.83;17.17;;;;;;;;;;4944069;28;100641;-71
2022/03/29 13:49:01;;;;;;;28.05;17.98;;;;;;;;;;4957573;28;100227;-72
2022/03/29 13:51:27;;;;;;;29.50;17.15;;;;;;;;;;4975435;28;100128;-72
2022/03/29 13:53:55;;;;;;;30.33;17.05;;;;;;;;;;4921102;28;101201;-72
2022/03/29 13:56:23;;;;;;;32.75;17.92;;;;;;;;;;4938045;28;101172;-72
2022/03/29 13:58:50;;;;;;;36.53;18.30;;;;;;;;;;4954983;28;100838;-72
2022/03/29 14:01:17;;;;;;;30.05;17.52;;;;;;;;;;4954327;28;100141;-72
2022/03/29 14:03:44;;;;;;;29.65;18.25;;;;;;;;;;4938500;28;100314;-72
2022/03/29 14:06:11;;;;;;;27.00;17.05;;;;;;;;;;4954086;28;100614;-72
2022/03/29 14:08:38;;;;;;;29.45;17.58;;;;;;;;;;4954600;28;100041;-72
2022/03/29 14:11:06;;;;;;;33.65;17.70;;;;;;;;;;4976689;28;99944;-71
2022/03/29 14:13:33;;;;;;;27.75;17.15;;;;;;;;;;4972788;28;101006;-72
2022/03/29 14:16:01;;;;;;;27.92;17.52;;;;;;;;;;4971482;28;101144;-72
2022/03/29 14:18:28;;;;;;;33.33;17.65;;;;;;;;;;4938547;28;100008;-72
2022/03/29 14:20:55;;;;;;;32.88;18.42;;;;;;;;;;4953492;28;100043;-72
2022/03/29 14:23:23;;;;;;;31.52;17.48;;;;;;;;;;4971447;28;100255;-72
2022/03/29 14:26:02;;;;;;;31.67;18.77;;;;;;;;;;4956413;28;100568;-72
2022/03/29 14:28:30;;;;;;;31.38;17.58;;;;;;;;;;4973742;28;100143;-72
2022/03/29 14:30:58;;;;;;;30.80;19.42;;;;;;;;;;4954776;28;100146;-72
2022/03/29 14:33:25;;;;;;;31.45;19.20;;;;;;;;;;4954082;28;100439;-72
2022/03/29 14:35:52;;;;;;;34.53;19.75;;;;;;;;;;4938084;28;100743;-72